createdAt,value
2023-03-17T00:09:06.732Z,1.23
2023-03-17T00:24:08.131Z,1.30
2023-03-17T00:39:09.564Z,1.20
2023-03-17T00:54:10.908Z,1.17
2023-03-17T01:09:12.256Z,1.27
2023-03-17T01:24:13.645Z,1.13
2023-03-17T01:39:15.057Z,1.07
2023-03-17T01:54:16.507Z,1.10
2023-03-17T02:09:17.987Z,1.10
2023-03-17T02:24:19.360Z,1.10
2023-03-17T02:39:20.750Z,1.17
2023-03-17T02:54:22.192Z,1.10
2023-03-17T03:09:23.677Z,1.20
2023-03-17T03:24:25.077Z,1.23
2023-03-17T03:39:26.446Z,1.10
2023-03-17T03:54:27.841Z,1.07
2023-03-17T04:09:29.205Z,0.90
2023-03-17T04:24:30.549Z,0.90
2023-03-17T04:39:31.954Z,0.90
2023-03-17T04:54:33.384Z,1.00
2023-03-17T05:09:34.801Z,0.90
2023-03-17T05:24:36.195Z,1.10
2023-03-17T05:39:37.577Z,0.90
2023-03-17T05:54:39.044Z,1.10
2023-03-17T06:09:40.429Z,1.03
2023-03-17T06:24:41.818Z,1.07
2023-03-17T06:39:43.250Z,1.03
2023-03-17T06:54:44.641Z,0.97
2023-03-17T07:09:46.109Z,1.10
2023-03-17T07:24:47.655Z,1.40
2023-03-17T07:39:49.014Z,2.50
2023-03-17T07:54:50.482Z,2.70
2023-03-17T08:09:51.865Z,2.10
2023-03-17T08:24:53.222Z,2.30
2023-03-17T08:39:54.643Z,1.77
2023-03-17T08:54:56.035Z,1.60
2023-03-17T09:09:57.425Z,1.70
2023-03-17T09:24:58.865Z,1.73
2023-03-17T09:40:00.214Z,1.70
2023-03-17T09:55:01.598Z,2.10
2023-03-17T10:10:03.045Z,2.00
2023-03-17T10:25:04.579Z,1.70
2023-03-17T10:40:05.973Z,1.83
2023-03-17T10:55:07.326Z,1.80
2023-03-17T11:10:08.730Z,1.63
2023-03-17T11:25:10.197Z,1.80
2023-03-17T11:40:11.593Z,1.50
2023-03-17T11:55:12.994Z,1.30
2023-03-17T12:10:14.661Z,1.77
2023-03-17T12:25:16.097Z,1.80
2023-03-17T12:40:17.573Z,1.90
2023-03-17T12:55:18.958Z,1.80
2023-03-17T13:10:20.640Z,1.60
2023-03-17T13:25:22.057Z,1.70
2023-03-17T13:40:23.463Z,1.77
2023-03-17T13:55:24.916Z,1.37
2023-03-17T14:10:26.385Z,1.30
2023-03-17T14:25:27.815Z,1.30
2023-03-17T14:40:29.225Z,1.47
2023-03-17T14:55:30.880Z,1.40
2023-03-17T15:10:32.687Z,1.23
2023-03-17T15:25:34.374Z,1.47
2023-03-17T15:40:35.829Z,1.30
2023-03-17T15:55:37.222Z,1.10
2023-03-17T16:10:38.658Z,1.40
2023-03-17T16:25:40.071Z,1.30
2023-03-17T16:40:41.563Z,1.63
2023-03-17T16:55:42.963Z,1.20
2023-03-17T17:10:44.384Z,1.40
2023-03-17T17:25:48.576Z,1.30
2023-03-17T17:40:50.068Z,1.23
2023-03-17T17:55:51.517Z,1.40
2023-03-17T18:10:52.967Z,1.10
2023-03-17T18:25:54.465Z,1.23
2023-03-17T18:40:55.841Z,1.30
2023-03-17T18:55:57.273Z,1.20
2023-03-17T19:10:58.619Z,1.30
2023-03-17T19:26:00.088Z,1.17
2023-03-17T19:41:01.599Z,1.40
2023-03-17T19:56:03.004Z,1.10
2023-03-17T20:11:04.442Z,1.20
2023-03-17T20:26:05.898Z,1.20
2023-03-17T20:41:07.507Z,1.20
2023-03-17T20:56:08.864Z,1.10
2023-03-17T21:11:10.228Z,1.10
2023-03-17T21:26:11.789Z,1.13
2023-03-17T21:41:13.127Z,1.00
2023-03-17T21:56:14.476Z,1.13
2023-03-17T22:11:15.958Z,1.57
2023-03-17T22:26:17.347Z,1.10
2023-03-17T22:41:18.733Z,1.00
2023-03-17T22:56:20.119Z,1.00
2023-03-17T23:11:21.528Z,1.07
2023-03-17T23:26:22.934Z,1.07
2023-03-17T23:41:24.341Z,0.80
2023-03-17T23:56:25.722Z,1.00
